createdAt,value
2023-03-08T00:01:20.199Z,50.85
2023-03-08T00:03:57.786Z,53.80
2023-03-08T00:06:26.358Z,52.83
2023-03-08T00:09:01.167Z,49.25
2023-03-08T00:11:29.162Z,49.50
2023-03-08T00:13:56.382Z,50.55
2023-03-08T00:16:24.448Z,44.60
2023-03-08T00:18:51.425Z,47.22
2023-03-08T00:21:19.133Z,51.38
2023-03-08T00:23:46.544Z,48.13
2023-03-08T00:26:13.815Z,47.03
2023-03-08T00:28:40.921Z,52.20
2023-03-08T00:31:10.788Z,49.83
2023-03-08T00:33:38.240Z,50.42
2023-03-08T00:36:14.176Z,49.72
2023-03-08T00:38:41.235Z,50.03
2023-03-08T00:41:08.809Z,46.35
2023-03-08T00:43:35.672Z,48.83
2023-03-08T00:46:02.730Z,50.40
2023-03-08T00:48:29.539Z,47.60
2023-03-08T00:50:56.336Z,48.83
2023-03-08T00:53:23.313Z,50.10
2023-03-08T00:55:55.667Z,49.88
2023-03-08T00:58:24.178Z,49.15
2023-03-08T01:00:51.471Z,51.83
2023-03-08T01:03:19.803Z,51.20
2023-03-08T01:05:52.185Z,46.17
2023-03-08T01:08:19.947Z,49.08
2023-03-08T01:10:52.176Z,46.58
2023-03-08T01:13:20.497Z,48.03
2023-03-08T01:15:47.603Z,49.00
2023-03-08T01:18:14.577Z,47.47
2023-03-08T01:20:41.840Z,44.80
2023-03-08T01:23:08.918Z,44.42
2023-03-08T01:25:36.256Z,46.13
2023-03-08T01:28:03.478Z,50.45
2023-03-08T01:30:30.329Z,54.30
2023-03-08T01:32:57.126Z,53.20
2023-03-08T01:35:24.013Z,53.42
2023-03-08T01:37:53.641Z,56.63
2023-03-08T01:40:20.932Z,53.92
2023-03-08T01:42:47.894Z,54.85
2023-03-08T01:45:52.349Z,51.20
2023-03-08T01:48:20.746Z,48.97
2023-03-08T01:50:47.732Z,53.47
2023-03-08T01:53:15.157Z,52.00
2023-03-08T01:55:42.930Z,53.30
2023-03-08T01:58:09.970Z,54.45
2023-03-08T02:00:38.949Z,49.75
2023-03-08T02:03:10.306Z,45.92
2023-03-08T02:05:42.871Z,53.13
2023-03-08T02:08:10.218Z,48.90
2023-03-08T02:10:38.198Z,51.95
2023-03-08T02:13:07.720Z,49.72
2023-03-08T02:15:34.981Z,53.80
2023-03-08T02:18:01.890Z,55.05
2023-03-08T02:20:32.439Z,56.53
2023-03-08T02:23:13.963Z,59.22
2023-03-08T02:25:42.211Z,60.08
2023-03-08T02:28:09.347Z,58.45
2023-03-08T02:30:38.655Z,63.97
2023-03-08T02:33:05.473Z,61.40
2023-03-08T02:35:33.066Z,62.85
2023-03-08T02:38:00.390Z,73.07
2023-03-08T02:40:27.285Z,70.85
2023-03-08T02:42:56.129Z,76.63
2023-03-08T02:45:23.996Z,75.20
2023-03-08T02:47:50.935Z,73.50
2023-03-08T02:50:17.995Z,77.22
2023-03-08T02:52:44.833Z,78.35
2023-03-08T02:55:12.022Z,81.60
2023-03-08T02:57:38.851Z,79.10
2023-03-08T03:00:06.404Z,71.40
2023-03-08T03:02:34.872Z,79.47
2023-03-08T03:05:07.436Z,81.80
2023-03-08T03:07:39.820Z,75.82
2023-03-08T03:10:09.034Z,72.22
2023-03-08T03:12:35.918Z,70.40
2023-03-08T03:15:04.085Z,84.05
2023-03-08T03:17:32.148Z,68.57
2023-03-08T03:19:59.184Z,68.95
2023-03-08T03:22:26.077Z,68.13
2023-03-08T03:24:53.642Z,66.95
2023-03-08T03:27:20.691Z,69.90
2023-03-08T03:29:47.530Z,64.72
2023-03-08T03:32:14.473Z,66.95
2023-03-08T03:34:41.361Z,65.50
2023-03-08T03:37:08.192Z,63.40
2023-03-08T03:39:39.146Z,66.15
2023-03-08T03:42:07.744Z,59.30
2023-03-08T03:44:34.790Z,62.08
2023-03-08T03:47:01.785Z,62.80
2023-03-08T03:49:29.371Z,65.28
2023-03-08T03:51:56.190Z,58.33
2023-03-08T03:54:23.306Z,56.50
2023-03-08T03:56:50.287Z,52.45
2023-03-08T03:59:17.336Z,57.33
2023-03-08T04:01:44.492Z,55.28
2023-03-08T04:04:11.673Z,53.45
2023-03-08T04:06:39.376Z,54.17
2023-03-08T04:09:08.894Z,60.17
2023-03-08T04:11:38.305Z,56.72
2023-03-08T04:14:06.277Z,52.22
2023-03-08T04:16:36.099Z,54.60
2023-03-08T04:19:05.711Z,59.30
2023-03-08T04:21:32.790Z,56.45
2023-03-08T04:24:00.769Z,48.78
2023-03-08T04:26:28.575Z,51.65
2023-03-08T04:28:55.778Z,45.47
2023-03-08T04:31:25.424Z,41.42
2023-03-08T04:33:52.938Z,38.10
2023-03-08T04:36:21.331Z,38.63
2023-03-08T04:38:48.792Z,37.95
2023-03-08T04:41:15.893Z,40.88
2023-03-08T04:43:48.557Z,40.10
2023-03-08T04:46:17.220Z,38.80
2023-03-08T04:48:44.425Z,39.30
2023-03-08T04:51:13.281Z,36.63
2023-03-08T04:53:41.750Z,40.90
2023-03-08T04:56:09.235Z,35.72
2023-03-08T04:58:37.242Z,37.33
2023-03-08T05:01:14.600Z,33.78
2023-03-08T05:03:42.257Z,34.28
2023-03-08T05:06:10.173Z,31.48
2023-03-08T05:08:38.654Z,32.85
2023-03-08T05:11:05.558Z,33.90
2023-03-08T05:13:35.727Z,32.92
2023-03-08T05:16:04.305Z,33.58
2023-03-08T05:18:31.283Z,26.95
2023-03-08T05:21:04.093Z,29.45
2023-03-08T05:23:31.334Z,30.45
2023-03-08T05:26:00.242Z,29.65
2023-03-08T05:28:30.544Z,28.13
2023-03-08T05:31:05.786Z,23.73
2023-03-08T05:33:33.454Z,28.17
2023-03-08T05:36:00.423Z,23.30
2023-03-08T05:38:28.159Z,26.55
2023-03-08T05:40:55.079Z,27.20
2023-03-08T05:43:22.237Z,24.60
2023-03-08T05:46:03.727Z,24.85
2023-03-08T05:48:31.847Z,25.77
2023-03-08T05:50:59.347Z,32.50
2023-03-08T05:53:26.563Z,26.52
2023-03-08T05:55:55.476Z,24.13
2023-03-08T05:58:22.359Z,25.58
2023-03-08T06:00:49.223Z,27.38
2023-03-08T06:03:16.071Z,21.45
2023-03-08T06:05:42.904Z,26.35
2023-03-08T06:08:09.786Z,23.50
2023-03-08T06:10:36.619Z,20.80
2023-03-08T06:13:04.471Z,20.98
2023-03-08T06:15:31.321Z,19.80
2023-03-08T06:17:58.121Z,21.42
2023-03-08T06:20:24.960Z,20.50
2023-03-08T06:22:51.796Z,16.67
2023-03-08T06:25:20.762Z,18.15
2023-03-08T06:27:47.724Z,16.48
2023-03-08T06:30:14.649Z,28.30
2023-03-08T06:32:43.150Z,16.30
2023-03-08T06:35:10.834Z,18.40
2023-03-08T06:37:37.674Z,17.45
2023-03-08T06:40:05.878Z,17.33
2023-03-08T06:42:40.990Z,17.58
2023-03-08T06:45:09.475Z,17.15
2023-03-08T06:47:36.282Z,18.25
2023-03-08T06:50:03.561Z,16.15
2023-03-08T06:52:37.494Z,17.17
2023-03-08T06:55:05.572Z,14.80
2023-03-08T06:57:32.539Z,16.88
2023-03-08T06:59:59.446Z,16.13
2023-03-08T07:02:26.227Z,16.83
2023-03-08T07:04:55.644Z,17.70
2023-03-08T07:07:22.462Z,18.15
2023-03-08T07:09:49.567Z,18.33
2023-03-08T07:12:16.411Z,20.42
2023-03-08T07:14:43.430Z,21.38
2023-03-08T07:17:10.299Z,17.15
2023-03-08T07:19:37.170Z,16.10
2023-03-08T07:22:03.974Z,15.20
2023-03-08T07:24:30.747Z,14.00
2023-03-08T07:26:57.562Z,14.35
2023-03-08T07:29:24.419Z,15.85
2023-03-08T07:31:51.237Z,13.85
2023-03-08T07:34:18.193Z,12.48
2023-03-08T07:36:45.150Z,15.40
2023-03-08T07:39:12.026Z,11.88
2023-03-08T07:41:38.873Z,13.35
2023-03-08T07:44:05.981Z,13.02
2023-03-08T07:46:32.846Z,13.77
2023-03-08T07:48:59.768Z,12.82
2023-03-08T07:51:26.754Z,12.35
2023-03-08T07:53:53.604Z,12.50
2023-03-08T07:56:20.522Z,11.75
2023-03-08T07:58:48.082Z,14.68
2023-03-08T08:01:15.195Z,12.15
2023-03-08T08:03:42.139Z,12.15
2023-03-08T08:06:09.749Z,14.88
2023-03-08T08:08:36.683Z,15.20
2023-03-08T08:11:09.711Z,14.32
2023-03-08T08:13:36.713Z,14.95
2023-03-08T08:16:03.987Z,16.05
2023-03-08T08:18:30.951Z,12.85
2023-03-08T08:21:09.118Z,17.48
2023-03-08T08:23:36.875Z,15.63
2023-03-08T08:26:18.813Z,14.30
2023-03-08T08:28:49.096Z,15.35
2023-03-08T08:31:19.268Z,14.25
2023-03-08T08:33:46.255Z,14.93
2023-03-08T08:36:16.012Z,14.05
2023-03-08T08:38:43.613Z,16.67
2023-03-08T08:41:11.094Z,17.05
2023-03-08T08:43:38.240Z,15.63
2023-03-08T08:46:05.821Z,14.60
2023-03-08T08:48:33.349Z,15.00
2023-03-08T08:51:00.813Z,15.77
2023-03-08T08:53:28.028Z,15.60
2023-03-08T08:55:55.492Z,16.48
2023-03-08T08:58:22.460Z,15.90
2023-03-08T09:00:49.566Z,16.85
2023-03-08T09:03:16.583Z,14.55
2023-03-08T09:05:45.040Z,16.92
2023-03-08T09:08:13.140Z,20.92
2023-03-08T09:10:41.172Z,17.83
2023-03-08T09:13:08.494Z,18.73
2023-03-08T09:15:37.298Z,19.75
2023-03-08T09:18:04.659Z,19.00
2023-03-08T09:20:31.680Z,16.75
2023-03-08T09:22:58.587Z,17.58
2023-03-08T09:25:25.729Z,15.43
2023-03-08T09:27:52.898Z,15.43
2023-03-08T09:30:20.124Z,15.40
2023-03-08T09:32:47.127Z,16.63
2023-03-08T09:35:15.417Z,13.35
2023-03-08T09:37:42.325Z,13.38
2023-03-08T09:40:23.888Z,13.95
2023-03-08T09:42:51.067Z,16.45
2023-03-08T09:45:26.490Z,15.45
2023-03-08T09:48:24.495Z,16.08
2023-03-08T09:50:57.354Z,15.77
2023-03-08T09:53:39.402Z,14.30
2023-03-08T09:56:32.297Z,15.27
2023-03-08T09:59:12.694Z,15.75
2023-03-08T10:01:50.056Z,14.02
2023-03-08T10:04:34.520Z,17.55
2023-03-08T10:07:20.283Z,14.25
2023-03-08T10:09:50.298Z,16.65
2023-03-08T10:12:39.776Z,15.75
2023-03-08T10:15:15.529Z,18.63
2023-03-08T10:18:04.900Z,17.17
2023-03-08T10:20:35.331Z,20.13
2023-03-08T10:23:17.890Z,17.77
2023-03-08T10:25:46.106Z,18.25
2023-03-08T10:28:19.946Z,16.08
2023-03-08T10:30:56.344Z,18.95
2023-03-08T10:33:24.685Z,18.92
2023-03-08T10:35:57.635Z,19.40
2023-03-08T10:38:28.025Z,20.80
2023-03-08T10:41:13.072Z,18.10
2023-03-08T10:43:46.019Z,20.63
2023-03-08T10:46:14.390Z,20.02
2023-03-08T10:48:41.662Z,19.35
2023-03-08T10:51:19.610Z,22.42
2023-03-08T10:54:02.663Z,18.13
2023-03-08T10:56:37.218Z,19.42
2023-03-08T10:59:06.501Z,20.92
2023-03-08T11:01:35.408Z,22.45
2023-03-08T11:04:14.340Z,22.13
2023-03-08T11:06:41.833Z,22.42
2023-03-08T11:09:25.839Z,21.85
2023-03-08T11:11:52.988Z,24.25
2023-03-08T11:14:20.042Z,26.45
2023-03-08T11:16:58.904Z,26.55
2023-03-08T11:19:49.303Z,26.10
2023-03-08T11:22:33.236Z,26.73
2023-03-08T11:25:44.426Z,26.55
2023-03-08T11:28:33.450Z,29.25
2023-03-08T11:31:24.076Z,30.02
2023-03-08T11:34:19.081Z,30.38
2023-03-08T11:37:15.066Z,27.77
2023-03-08T11:40:14.028Z,29.88
2023-03-08T11:42:45.628Z,27.88
2023-03-08T11:45:33.675Z,31.25
2023-03-08T11:48:39.041Z,29.50
2023-03-08T11:51:18.625Z,30.50
2023-03-08T11:53:55.752Z,32.00
2023-03-08T11:56:27.123Z,30.75
2023-03-08T11:59:03.152Z,32.50
2023-03-08T12:01:37.771Z,34.97
2023-03-08T12:04:17.397Z,32.72
2023-03-08T12:06:46.266Z,36.03
2023-03-08T12:09:40.315Z,42.50
2023-03-08T12:12:11.620Z,35.92
2023-03-08T12:14:59.246Z,36.33
2023-03-08T12:17:32.331Z,33.03
2023-03-08T12:19:59.280Z,40.17
2023-03-08T12:22:31.228Z,34.55
2023-03-08T12:25:05.976Z,39.40
2023-03-08T12:28:04.646Z,38.13
2023-03-08T12:31:02.460Z,38.20
2023-03-08T12:33:32.419Z,37.58
2023-03-08T12:36:07.698Z,37.42
2023-03-08T12:38:36.429Z,35.33
2023-03-08T12:41:07.011Z,35.10
2023-03-08T12:43:35.830Z,38.15
2023-03-08T12:46:09.230Z,34.45
2023-03-08T12:48:46.977Z,37.50
2023-03-08T12:51:14.280Z,38.92
2023-03-08T12:53:44.842Z,35.58
2023-03-08T12:56:11.779Z,37.15
2023-03-08T12:58:48.368Z,39.78
2023-03-08T13:01:35.405Z,38.53
2023-03-08T13:04:38.661Z,37.70
2023-03-08T13:07:10.436Z,38.17
2023-03-08T13:09:56.579Z,39.95
2023-03-08T13:12:32.960Z,38.63
2023-03-08T13:15:03.161Z,38.55
2023-03-08T13:17:41.955Z,42.63
2023-03-08T13:20:26.677Z,40.13
2023-03-08T13:23:01.078Z,43.20
2023-03-08T13:26:04.399Z,43.45
2023-03-08T13:28:47.669Z,41.88
2023-03-08T13:31:20.420Z,44.10
2023-03-08T13:33:49.446Z,42.30
2023-03-08T13:36:29.815Z,43.20
2023-03-08T13:38:57.540Z,45.67
2023-03-08T13:41:35.277Z,44.90
2023-03-08T13:44:15.459Z,47.15
2023-03-08T13:46:43.198Z,45.75
2023-03-08T13:49:37.271Z,47.33
2023-03-08T13:52:14.189Z,45.72
2023-03-08T13:54:47.407Z,46.35
2023-03-08T13:57:47.483Z,46.25
2023-03-08T14:00:36.444Z,48.90
2023-03-08T14:03:07.704Z,45.70
2023-03-08T14:05:42.914Z,49.60
2023-03-08T14:08:21.786Z,54.40
2023-03-08T14:11:02.513Z,49.47
2023-03-08T14:13:36.260Z,48.75
2023-03-08T14:16:06.471Z,52.63
2023-03-08T14:18:37.006Z,52.35
2023-03-08T14:21:19.703Z,62.83
2023-03-08T14:23:54.404Z,52.13
2023-03-08T14:26:30.286Z,52.05
2023-03-08T14:29:19.111Z,50.83
2023-03-08T14:32:12.244Z,49.95
2023-03-08T14:34:45.199Z,50.47
2023-03-08T14:37:12.141Z,48.35
2023-03-08T14:39:44.379Z,52.55
2023-03-08T14:42:33.448Z,52.53
2023-03-08T14:45:04.077Z,53.90
2023-03-08T14:47:35.530Z,56.15
2023-03-08T14:50:04.001Z,56.53
2023-03-08T14:52:34.068Z,56.42
2023-03-08T14:55:03.365Z,59.22
2023-03-08T14:57:31.018Z,60.65
2023-03-08T15:00:07.786Z,62.92
2023-03-08T15:02:35.596Z,66.00
2023-03-08T15:05:02.716Z,65.35
2023-03-08T15:07:34.003Z,60.00
2023-03-08T15:10:04.269Z,64.80
2023-03-08T15:12:31.194Z,60.53
2023-03-08T15:14:58.076Z,62.97
2023-03-08T15:17:25.152Z,65.43
2023-03-08T15:19:52.043Z,66.22
2023-03-08T15:22:19.134Z,69.88
2023-03-08T15:24:46.027Z,64.82
2023-03-08T15:27:16.422Z,69.10
2023-03-08T15:29:43.462Z,69.13
2023-03-08T15:32:10.472Z,70.95
2023-03-08T15:34:39.591Z,70.18
2023-03-08T15:37:07.553Z,72.38
2023-03-08T15:39:34.451Z,71.40
2023-03-08T15:42:01.485Z,72.68
2023-03-08T15:44:28.827Z,97.20
2023-03-08T15:46:55.932Z,69.72
2023-03-08T15:49:22.817Z,70.78
2023-03-08T15:51:50.019Z,69.13
2023-03-08T15:54:17.299Z,72.88
2023-03-08T15:56:44.553Z,72.72
2023-03-08T15:59:12.017Z,70.15
2023-03-08T16:01:39.024Z,66.57
2023-03-08T16:04:06.038Z,66.45
2023-03-08T16:06:33.022Z,67.15
2023-03-08T16:09:00.134Z,72.60
2023-03-08T16:11:27.598Z,69.30
2023-03-08T16:13:54.755Z,67.90
2023-03-08T16:16:24.474Z,73.80
2023-03-08T16:18:54.937Z,67.95
2023-03-08T16:21:22.047Z,67.70
2023-03-08T16:23:49.062Z,64.40
2023-03-08T16:26:17.707Z,65.03
2023-03-08T16:28:47.186Z,71.47
2023-03-08T16:31:15.455Z,70.55
2023-03-08T16:36:24.021Z,69.20
2023-03-08T16:38:51.003Z,73.45
2023-03-08T16:41:17.938Z,70.45
2023-03-08T16:43:47.978Z,71.45
2023-03-08T16:46:17.816Z,70.18
2023-03-08T16:48:45.144Z,72.15
2023-03-08T16:51:18.168Z,76.97
2023-03-08T16:53:45.060Z,67.35
2023-03-08T16:56:29.229Z,68.82
2023-03-08T16:58:58.209Z,75.05
2023-03-08T17:01:26.077Z,69.00
2023-03-08T17:03:53.517Z,71.60
2023-03-08T17:06:23.921Z,72.32
2023-03-08T17:08:50.868Z,75.65
2023-03-08T17:11:29.332Z,80.30
2023-03-08T17:13:58.996Z,79.20
2023-03-08T17:16:29.523Z,77.57
2023-03-08T17:18:58.164Z,87.10
2023-03-08T17:21:25.314Z,89.80
2023-03-08T17:23:52.746Z,96.13
2023-03-08T17:26:21.950Z,83.72
2023-03-08T17:28:54.084Z,83.30
2023-03-08T17:31:23.358Z,77.38
2023-03-08T17:33:52.195Z,75.28
2023-03-08T17:36:19.886Z,85.72
2023-03-08T17:38:49.630Z,79.47
2023-03-08T17:41:17.152Z,85.65
2023-03-08T17:43:44.204Z,85.05
2023-03-08T17:46:16.833Z,87.78
2023-03-08T17:48:44.445Z,86.55
2023-03-08T17:51:17.274Z,83.63
2023-03-08T17:53:48.254Z,82.63
2023-03-08T17:56:21.405Z,86.90
2023-03-08T17:58:49.603Z,85.82
2023-03-08T18:01:19.672Z,85.45
2023-03-08T18:03:48.034Z,86.35
2023-03-08T18:06:29.432Z,82.20
2023-03-08T18:08:57.825Z,82.00
2023-03-08T18:11:24.853Z,88.90
2023-03-08T18:13:52.182Z,88.40
2023-03-08T18:16:20.202Z,81.95
2023-03-08T18:18:49.628Z,86.80
2023-03-08T18:21:21.167Z,86.40
2023-03-08T18:23:48.452Z,86.68
2023-03-08T18:26:16.902Z,91.30
2023-03-08T18:28:43.827Z,84.15
2023-03-08T18:31:20.519Z,88.32
2023-03-08T18:33:47.525Z,88.10
2023-03-08T18:36:14.657Z,94.15
2023-03-08T18:38:42.964Z,83.38
2023-03-08T18:41:17.931Z,89.22
2023-03-08T18:43:45.452Z,90.82
2023-03-08T18:46:13.756Z,87.40
2023-03-08T18:48:41.726Z,82.30
2023-03-08T18:51:09.726Z,91.90
2023-03-08T18:53:37.183Z,84.65
2023-03-08T18:56:04.880Z,90.85
2023-03-08T18:58:32.230Z,91.53
2023-03-08T19:01:00.468Z,92.22
2023-03-08T19:03:28.014Z,86.90
2023-03-08T19:05:55.008Z,90.15
2023-03-08T19:08:22.395Z,90.50
2023-03-08T19:10:49.302Z,85.03
2023-03-08T19:13:16.306Z,89.78
2023-03-08T19:15:43.258Z,81.40
2023-03-08T19:18:10.746Z,89.43
2023-03-08T19:20:39.310Z,89.38
2023-03-08T19:23:06.925Z,87.30
2023-03-08T19:25:35.512Z,84.95
2023-03-08T19:28:03.156Z,92.63
2023-03-08T19:30:29.945Z,93.28
2023-03-08T19:32:57.315Z,84.55
2023-03-08T19:35:24.378Z,92.25
2023-03-08T19:37:51.228Z,89.97
2023-03-08T19:40:18.404Z,88.20
2023-03-08T19:42:45.224Z,89.85
2023-03-08T19:45:13.300Z,84.72
2023-03-08T19:47:40.301Z,89.47
2023-03-08T19:50:07.753Z,92.75
2023-03-08T19:52:34.537Z,91.53
2023-03-08T19:55:02.229Z,85.63
2023-03-08T19:57:29.181Z,86.03
2023-03-08T19:59:57.700Z,89.05
2023-03-08T20:02:24.833Z,90.18
2023-03-08T20:04:51.668Z,88.00
2023-03-08T20:07:18.593Z,84.45
2023-03-08T20:09:45.705Z,97.40
2023-03-08T20:12:12.612Z,93.88
2023-03-08T20:14:39.506Z,98.43
2023-03-08T20:17:06.521Z,93.50
2023-03-08T20:19:34.194Z,89.10
2023-03-08T20:22:01.209Z,83.90
2023-03-08T20:24:28.367Z,89.03
2023-03-08T20:26:55.417Z,87.43
2023-03-08T20:29:22.315Z,90.95
2023-03-08T20:31:50.119Z,92.43
2023-03-08T20:34:17.700Z,91.30
2023-03-08T20:36:44.861Z,91.97
2023-03-08T20:39:11.744Z,92.30
2023-03-08T20:41:38.655Z,87.30
2023-03-08T20:44:05.596Z,92.07
2023-03-08T20:46:33.879Z,93.00
2023-03-08T20:49:01.616Z,97.00
2023-03-08T20:51:29.256Z,93.55
2023-03-08T20:53:56.583Z,98.78
2023-03-08T20:56:24.953Z,93.20
2023-03-08T20:58:54.782Z,100.20
2023-03-08T21:01:28.306Z,100.32
2023-03-08T21:03:55.278Z,104.22
2023-03-08T21:06:26.069Z,111.40
2023-03-08T21:08:53.323Z,105.60
2023-03-08T21:11:20.941Z,115.35
2023-03-08T21:13:49.250Z,108.85
2023-03-08T21:16:18.043Z,107.82
2023-03-08T21:18:49.736Z,105.47
2023-03-08T21:21:32.387Z,103.55
2023-03-08T21:24:01.387Z,105.25
2023-03-08T21:26:29.345Z,99.13
2023-03-08T21:28:58.750Z,105.05
2023-03-08T21:31:25.934Z,100.97
2023-03-08T21:33:53.601Z,103.88
2023-03-08T21:36:20.616Z,103.13
2023-03-08T21:38:55.412Z,107.13
2023-03-08T21:41:25.793Z,103.95
2023-03-08T21:43:53.079Z,101.95
2023-03-08T21:46:20.590Z,109.82
2023-03-08T21:48:47.898Z,111.25
2023-03-08T21:51:15.027Z,105.85
2023-03-08T21:53:42.716Z,108.03
2023-03-08T21:56:11.506Z,99.43
2023-03-08T21:58:38.926Z,104.07
2023-03-08T22:01:07.159Z,104.97
2023-03-08T22:03:34.778Z,97.78
2023-03-08T22:06:01.570Z,103.47
2023-03-08T22:08:28.491Z,102.22
2023-03-08T22:10:55.789Z,99.95
2023-03-08T22:13:22.624Z,96.05
2023-03-08T22:15:49.476Z,103.43
2023-03-08T22:18:16.449Z,94.85
2023-03-08T22:20:43.842Z,98.63
2023-03-08T22:23:10.687Z,96.82
2023-03-08T22:25:37.646Z,98.95
2023-03-08T22:28:04.986Z,91.13
2023-03-08T22:30:31.845Z,100.25
2023-03-08T22:32:58.730Z,97.00
2023-03-08T22:35:25.759Z,89.28
2023-03-08T22:37:52.697Z,94.38
2023-03-08T22:40:19.722Z,87.93
2023-03-08T22:42:47.188Z,92.32
2023-03-08T22:45:14.939Z,87.10
2023-03-08T22:47:41.955Z,78.38
2023-03-08T22:50:09.545Z,81.00
2023-03-08T22:52:36.445Z,81.47
2023-03-08T22:55:04.294Z,75.60
2023-03-08T22:57:31.578Z,69.05
2023-03-08T22:59:58.942Z,64.25
2023-03-08T23:02:26.508Z,66.93
2023-03-08T23:04:58.110Z,69.70
2023-03-08T23:07:25.116Z,71.72
2023-03-08T23:09:53.337Z,71.57
2023-03-08T23:12:20.241Z,70.30
2023-03-08T23:14:47.097Z,68.55
2023-03-08T23:17:14.038Z,67.22
2023-03-08T23:19:45.056Z,63.97
2023-03-08T23:22:12.823Z,68.68
2023-03-08T23:24:39.859Z,66.57
2023-03-08T23:27:06.932Z,67.97
2023-03-08T23:29:34.015Z,67.90
2023-03-08T23:32:00.963Z,74.35
2023-03-08T23:34:27.972Z,69.85
2023-03-08T23:36:55.063Z,72.47
2023-03-08T23:39:21.932Z,76.53
2023-03-08T23:41:48.728Z,77.68
2023-03-08T23:44:17.316Z,83.10
2023-03-08T23:46:46.322Z,79.93
2023-03-08T23:49:13.423Z,77.15
2023-03-08T23:51:40.353Z,74.90
2023-03-08T23:54:07.331Z,73.00
2023-03-08T23:56:39.254Z,75.70
2023-03-08T23:59:18.506Z,74.18
